sensor_id;sensor_type;location;lat;lon;timestamp;pressure;altitude;pressure_sealevel;temperature
71630;BMP280;59479;51.902;8.212;2024-01-30T00:02:09;102159.66;;;7.14
71630;BMP280;59479;51.902;8.212;2024-01-30T00:04:34;102153.75;;;7.12
71630;BMP280;59479;51.902;8.212;2024-01-30T00:07:00;102152.78;;;7.09
71630;BMP280;59479;51.902;8.212;2024-01-30T00:09:25;102160.22;;;7.07
71630;BMP280;59479;51.902;8.212;2024-01-30T00:11:50;102155.97;;;7.05
71630;BMP280;59479;51.902;8.212;2024-01-30T00:14:16;102153.47;;;7.05
71630;BMP280;59479;51.902;8.212;2024-01-30T00:16:41;102154.38;;;7.07
71630;BMP280;59479;51.902;8.212;2024-01-30T00:19:06;102161.94;;;7.08
71630;BMP280;59479;51.902;8.212;2024-01-30T00:21:33;102152.63;;;7.04
71630;BMP280;59479;51.902;8.212;2024-01-30T00:23:58;102150.00;;;7.01
71630;BMP280;59479;51.902;8.212;2024-01-30T00:26:24;102154.88;;;6.98
71630;BMP280;59479;51.902;8.212;2024-01-30T00:28:49;102144.75;;;6.95
71630;BMP280;59479;51.902;8.212;2024-01-30T00:31:15;102145.56;;;6.94
71630;BMP280;59479;51.902;8.212;2024-01-30T00:33:41;102158.06;;;6.94
71630;BMP280;59479;51.902;8.212;2024-01-30T00:36:09;102154.69;;;6.94
71630;BMP280;59479;51.902;8.212;2024-01-30T00:38:35;102154.63;;;6.92
71630;BMP280;59479;51.902;8.212;2024-01-30T00:41:00;102152.75;;;6.87
71630;BMP280;59479;51.902;8.212;2024-01-30T00:43:27;102154.28;;;6.83
71630;BMP280;59479;51.902;8.212;2024-01-30T00:45:52;102150.88;;;6.81
71630;BMP280;59479;51.902;8.212;2024-01-30T00:48:18;102157.56;;;6.82
71630;BMP280;59479;51.902;8.212;2024-01-30T00:50:43;102150.88;;;6.81
71630;BMP280;59479;51.902;8.212;2024-01-30T00:53:09;102151.72;;;6.82
71630;BMP280;59479;51.902;8.212;2024-01-30T00:55:35;102158.25;;;6.78
71630;BMP280;59479;51.902;8.212;2024-01-30T00:58:00;102149.09;;;6.77
71630;BMP280;59479;51.902;8.212;2024-01-30T01:00:25;102149.78;;;6.75
71630;BMP280;59479;51.902;8.212;2024-01-30T01:02:57;102151.38;;;6.73
71630;BMP280;59479;51.902;8.212;2024-01-30T01:05:22;102147.09;;;6.70
71630;BMP280;59479;51.902;8.212;2024-01-30T01:07:47;102148.69;;;6.68
71630;BMP280;59479;51.902;8.212;2024-01-30T01:10:14;102143.56;;;6.66
71630;BMP280;59479;51.902;8.212;2024-01-30T01:12:39;102141.16;;;6.67
71630;BMP280;59479;51.902;8.212;2024-01-30T01:15:05;102136.00;;;6.63
71630;BMP280;59479;51.902;8.212;2024-01-30T01:17:34;102137.53;;;6.61
71630;BMP280;59479;51.902;8.212;2024-01-30T01:19:59;102139.94;;;6.58
71630;BMP280;59479;51.902;8.212;2024-01-30T01:22:25;102137.53;;;6.61
71630;BMP280;59479;51.902;8.212;2024-01-30T01:24:50;102151.69;;;6.60
71630;BMP280;59479;51.902;8.212;2024-01-30T01:27:15;102145.91;;;6.61
71630;BMP280;59479;51.902;8.212;2024-01-30T01:29:41;102151.03;;;6.64
71630;BMP280;59479;51.902;8.212;2024-01-30T01:32:07;102142.59;;;6.62
71630;BMP280;59479;51.902;8.212;2024-01-30T01:34:32;102140.16;;;6.64
71630;BMP280;59479;51.902;8.212;2024-01-30T01:36:57;102136.78;;;6.62
71630;BMP280;59479;51.902;8.212;2024-01-30T01:39:23;102140.78;;;6.58
71630;BMP280;59479;51.902;8.212;2024-01-30T01:41:49;102140.78;;;6.58
71630;BMP280;59479;51.902;8.212;2024-01-30T01:44:14;102134.00;;;6.56
71630;BMP280;59479;51.902;8.212;2024-01-30T01:46:39;102121.44;;;6.53
71630;BMP280;59479;51.902;8.212;2024-01-30T01:49:05;102130.47;;;6.51
71630;BMP280;59479;51.902;8.212;2024-01-30T01:51:34;102131.34;;;6.51
71630;BMP280;59479;51.902;8.212;2024-01-30T01:54:02;102124.03;;;6.56
71630;BMP280;59479;51.902;8.212;2024-01-30T01:56:29;102124.09;;;6.57
71630;BMP280;59479;51.902;8.212;2024-01-30T01:58:54;102119.97;;;6.58
71630;BMP280;59479;51.902;8.212;2024-01-30T02:01:20;102120.06;;;6.61
71630;BMP280;59479;51.902;8.212;2024-01-30T02:03:47;102119.97;;;6.58
71630;BMP280;59479;51.902;8.212;2024-01-30T02:06:15;102110.06;;;6.61
71630;BMP280;59479;51.902;8.212;2024-01-30T02:08:41;102120.31;;;6.67
71630;BMP280;59479;51.902;8.212;2024-01-30T02:11:07;102105.25;;;6.65
71630;BMP280;59479;51.902;8.212;2024-01-30T02:13:33;102106.28;;;6.70
71630;BMP280;59479;51.902;8.212;2024-01-30T02:15:59;102112.13;;;6.70
71630;BMP280;59479;51.902;8.212;2024-01-30T02:18:26;102106.41;;;6.73
71630;BMP280;59479;51.902;8.212;2024-01-30T02:20:53;102103.91;;;6.73
71630;BMP280;59479;51.902;8.212;2024-01-30T02:23:20;102113.22;;;6.77
71630;BMP280;59479;51.902;8.212;2024-01-30T02:25:45;102104.09;;;6.77
71630;BMP280;59479;51.902;8.212;2024-01-30T02:28:12;102106.59;;;6.77
71630;BMP280;59479;51.902;8.212;2024-01-30T02:30:40;102093.34;;;6.80
71630;BMP280;59479;51.902;8.212;2024-01-30T02:33:07;102104.31;;;6.83
71630;BMP280;59479;51.902;8.212;2024-01-30T02:35:33;102098.53;;;6.84
71630;BMP280;59479;51.902;8.212;2024-01-30T02:37:59;102099.44;;;6.86
71630;BMP280;59479;51.902;8.212;2024-01-30T02:40:24;102091.81;;;6.83
71630;BMP280;59479;51.902;8.212;2024-01-30T02:42:50;102084.94;;;6.78
71630;BMP280;59479;51.902;8.212;2024-01-30T02:45:15;102085.09;;;6.82
71630;BMP280;59479;51.902;8.212;2024-01-30T02:47:40;102088.59;;;6.86
71630;BMP280;59479;51.902;8.212;2024-01-30T02:50:06;102081.13;;;6.87
71630;BMP280;59479;51.902;8.212;2024-01-30T02:52:32;102072.13;;;6.91
71630;BMP280;59479;51.902;8.212;2024-01-30T02:54:57;102077.13;;;6.91
71630;BMP280;59479;51.902;8.212;2024-01-30T02:57:22;102067.22;;;6.94
71630;BMP280;59479;51.902;8.212;2024-01-30T02:59:48;102062.16;;;6.92
71630;BMP280;59479;51.902;8.212;2024-01-30T03:02:13;102061.59;;;6.99
71630;BMP280;59479;51.902;8.212;2024-01-30T03:04:41;102061.69;;;7.02
71630;BMP280;59479;51.902;8.212;2024-01-30T03:07:06;102054.50;;;7.10
71630;BMP280;59479;51.902;8.212;2024-01-30T03:09:31;102062.06;;;7.11
71630;BMP280;59479;51.902;8.212;2024-01-30T03:11:57;102066.22;;;7.12
71630;BMP280;59479;51.902;8.212;2024-01-30T03:14:22;102062.94;;;7.13
71630;BMP280;59479;51.902;8.212;2024-01-30T03:16:48;102053.00;;;7.14
71630;BMP280;59479;51.902;8.212;2024-01-30T03:19:13;102052.25;;;7.17
71630;BMP280;59479;51.902;8.212;2024-01-30T03:21:39;102052.13;;;7.14
71630;BMP280;59479;51.902;8.212;2024-01-30T03:24:04;102047.38;;;7.20
71630;BMP280;59479;51.902;8.212;2024-01-30T03:26:30;102049.91;;;7.21
71630;BMP280;59479;51.902;8.212;2024-01-30T03:28:55;102039.13;;;7.22
71630;BMP280;59479;51.902;8.212;2024-01-30T03:31:20;102030.16;;;7.29
71630;BMP280;59479;51.902;8.212;2024-01-30T03:33:46;102025.22;;;7.30
71630;BMP280;59479;51.902;8.212;2024-01-30T03:36:11;102034.31;;;7.28
71630;BMP280;59479;51.902;8.212;2024-01-30T03:38:36;102026.09;;;7.31
71630;BMP280;59479;51.902;8.212;2024-01-30T03:41:02;102021.16;;;7.34
71630;BMP280;59479;51.902;8.212;2024-01-30T03:43:27;102025.41;;;7.35
71630;BMP280;59479;51.902;8.212;2024-01-30T03:45:53;102024.56;;;7.34
71630;BMP280;59479;51.902;8.212;2024-01-30T03:48:18;102023.72;;;7.35
71630;BMP280;59479;51.902;8.212;2024-01-30T03:50:44;102017.28;;;7.42
71630;BMP280;59479;51.902;8.212;2024-01-30T03:53:09;102018.06;;;7.39
71630;BMP280;59479;51.902;8.212;2024-01-30T03:55:34;102022.25;;;7.40
71630;BMP280;59479;51.902;8.212;2024-01-30T03:58:00;102016.41;;;7.40
71630;BMP280;59479;51.902;8.212;2024-01-30T04:00:25;102020.03;;;7.48
71630;BMP280;59479;51.902;8.212;2024-01-30T04:02:50;102020.09;;;7.51
71630;BMP280;59479;51.902;8.212;2024-01-30T04:05:19;102015.09;;;7.51
71630;BMP280;59479;51.902;8.212;2024-01-30T04:07:44;102016.09;;;7.55
71630;BMP280;59479;51.902;8.212;2024-01-30T04:10:09;102013.72;;;7.58
71630;BMP280;59479;51.902;8.212;2024-01-30T04:12:35;102011.06;;;7.54
71630;BMP280;59479;51.902;8.212;2024-01-30T04:15:01;102006.19;;;7.58
71630;BMP280;59479;51.902;8.212;2024-01-30T04:17:27;102007.81;;;7.56
71630;BMP280;59479;51.902;8.212;2024-01-30T04:19:54;102008.69;;;7.58
71630;BMP280;59479;51.902;8.212;2024-01-30T04:22:20;102000.31;;;7.56
71630;BMP280;59479;51.902;8.212;2024-01-30T04:24:46;102002.09;;;7.60
71630;BMP280;59479;51.902;8.212;2024-01-30T04:27:11;101998.81;;;7.61
71630;BMP280;59479;51.902;8.212;2024-01-30T04:29:37;101998.09;;;7.65
71630;BMP280;59479;51.902;8.212;2024-01-30T04:32:03;102006.38;;;7.63
71630;BMP280;59479;51.902;8.212;2024-01-30T04:34:28;102008.81;;;7.61
71630;BMP280;59479;51.902;8.212;2024-01-30T04:36:54;102008.09;;;7.65
71630;BMP280;59479;51.902;8.212;2024-01-30T04:39:19;101999.09;;;7.70
71630;BMP280;59479;51.902;8.212;2024-01-30T04:41:45;102002.53;;;7.72
71630;BMP280;59479;51.902;8.212;2024-01-30T04:44:10;102013.50;;;7.77
71630;BMP280;59479;51.902;8.212;2024-01-30T04:46:36;102005.16;;;7.77
71630;BMP280;59479;51.902;8.212;2024-01-30T04:49:01;102008.56;;;7.79
71630;BMP280;59479;51.902;8.212;2024-01-30T04:51:26;102001.03;;;7.79
71630;BMP280;59479;51.902;8.212;2024-01-30T04:53:55;102007.72;;;7.78
71630;BMP280;59479;51.902;8.212;2024-01-30T04:56:21;102006.81;;;7.76
71630;BMP280;59479;51.902;8.212;2024-01-30T04:58:46;102006.81;;;7.76
71630;BMP280;59479;51.902;8.212;2024-01-30T05:01:15;101998.53;;;7.79
71630;BMP280;59479;51.902;8.212;2024-01-30T05:03:41;102000.19;;;7.78
71630;BMP280;59479;51.902;8.212;2024-01-30T05:06:06;101998.75;;;7.85
71630;BMP280;59479;51.902;8.212;2024-01-30T05:08:31;101991.28;;;7.86
71630;BMP280;59479;51.902;8.212;2024-01-30T05:11:00;101992.91;;;7.84
71630;BMP280;59479;51.902;8.212;2024-01-30T05:13:25;101997.09;;;7.85
71630;BMP280;59479;51.902;8.212;2024-01-30T05:15:50;101999.59;;;7.85
71630;BMP280;59479;51.902;8.212;2024-01-30T05:18:16;102000.03;;;7.74
71630;BMP280;59479;51.902;8.212;2024-01-30T05:20:41;102000.19;;;7.78
71630;BMP280;59479;51.902;8.212;2024-01-30T05:23:07;101999.97;;;7.71
71630;BMP280;59479;51.902;8.212;2024-01-30T05:25:33;101996.66;;;7.72
71630;BMP280;59479;51.902;8.212;2024-01-30T05:27:58;101990.09;;;7.75
71630;BMP280;59479;51.902;8.212;2024-01-30T05:30:23;101988.53;;;7.79
71630;BMP280;59479;51.902;8.212;2024-01-30T05:32:49;101991.69;;;7.73
71630;BMP280;59479;51.902;8.212;2024-01-30T05:35:15;101995.81;;;7.71
71630;BMP280;59479;51.902;8.212;2024-01-30T05:37:40;101997.81;;;7.81
71630;BMP280;59479;51.902;8.212;2024-01-30T05:40:06;101990.19;;;7.78
71630;BMP280;59479;51.902;8.212;2024-01-30T05:42:32;101995.47;;;7.86
71630;BMP280;59479;51.902;8.212;2024-01-30T05:44:57;101989.56;;;7.85
71630;BMP280;59479;51.902;8.212;2024-01-30T05:47:22;101988.78;;;7.86
71630;BMP280;59479;51.902;8.212;2024-01-30T05:49:48;101987.75;;;7.80
71630;BMP280;59479;51.902;8.212;2024-01-30T05:52:13;101987.97;;;7.87
71630;BMP280;59479;51.902;8.212;2024-01-30T05:54:40;101988.63;;;7.82
71630;BMP280;59479;51.902;8.212;2024-01-30T05:57:05;101985.44;;;7.86
71630;BMP280;59479;51.902;8.212;2024-01-30T05:59:31;101993.78;;;7.86
71630;BMP280;59479;51.902;8.212;2024-01-30T06:01:57;101987.97;;;7.87
71630;BMP280;59479;51.902;8.212;2024-01-30T06:04:23;101990.63;;;7.92
71630;BMP280;59479;51.902;8.212;2024-01-30T06:06:48;101995.63;;;7.92
71630;BMP280;59479;51.902;8.212;2024-01-30T06:09:13;101994.91;;;7.94
71630;BMP280;59479;51.902;8.212;2024-01-30T06:11:39;101994.69;;;7.88
71630;BMP280;59479;51.902;8.212;2024-01-30T06:14:05;101993.06;;;7.90
71630;BMP280;59479;51.902;8.212;2024-01-30T06:16:30;101988.97;;;7.92
71630;BMP280;59479;51.902;8.212;2024-01-30T06:18:56;101989.13;;;7.96
71630;BMP280;59479;51.902;8.212;2024-01-30T06:21:21;101984.97;;;7.97
71630;BMP280;59479;51.902;8.212;2024-01-30T06:23:46;101984.91;;;7.95
71630;BMP280;59479;51.902;8.212;2024-01-30T06:26:12;101985.78;;;7.96
71630;BMP280;59479;51.902;8.212;2024-01-30T06:28:37;101986.56;;;7.95
71630;BMP280;59479;51.902;8.212;2024-01-30T06:31:02;101979.09;;;7.96
71630;BMP280;59479;51.902;8.212;2024-01-30T06:33:28;101982.41;;;7.95
71630;BMP280;59479;51.902;8.212;2024-01-30T06:35:54;101983.28;;;7.96
71630;BMP280;59479;51.902;8.212;2024-01-30T06:38:19;101976.03;;;8.05
71630;BMP280;59479;51.902;8.212;2024-01-30T06:40:44;101977.66;;;8.03
71630;BMP280;59479;51.902;8.212;2024-01-30T06:43:10;101976.13;;;8.08
71630;BMP280;59479;51.902;8.212;2024-01-30T06:45:36;101976.09;;;8.06
71630;BMP280;59479;51.902;8.212;2024-01-30T06:48:02;101976.13;;;8.08
71630;BMP280;59479;51.902;8.212;2024-01-30T06:50:28;101987.19;;;8.13
71630;BMP280;59479;51.902;8.212;2024-01-30T06:52:53;101984.72;;;8.14
71630;BMP280;59479;51.902;8.212;2024-01-30T06:55:18;101980.47;;;8.12
71630;BMP280;59479;51.902;8.212;2024-01-30T06:57:44;101972.91;;;8.10
71630;BMP280;59479;51.902;8.212;2024-01-30T07:00:10;101977.03;;;8.10
71630;BMP280;59479;51.902;8.212;2024-01-30T07:02:35;101984.72;;;8.14
71630;BMP280;59479;51.902;8.212;2024-01-30T07:05:01;101986.09;;;8.06
71630;BMP280;59479;51.902;8.212;2024-01-30T07:07:27;101980.47;;;8.12
71630;BMP280;59479;51.902;8.212;2024-01-30T07:09:54;101988.03;;;8.13
71630;BMP280;59479;51.902;8.212;2024-01-30T07:12:22;101985.56;;;8.15
71630;BMP280;59479;51.902;8.212;2024-01-30T07:14:48;101989.78;;;8.16
71630;BMP280;59479;51.902;8.212;2024-01-30T07:17:13;101992.38;;;8.19
71630;BMP280;59479;51.902;8.212;2024-01-30T07:19:39;101979.16;;;8.23
71630;BMP280;59479;51.902;8.212;2024-01-30T07:22:04;101980.03;;;8.25
71630;BMP280;59479;51.902;8.212;2024-01-30T07:24:30;101990.84;;;8.24
71630;BMP280;59479;51.902;8.212;2024-01-30T07:26:55;101980.03;;;8.25
71630;BMP280;59479;51.902;8.212;2024-01-30T07:29:20;101985.94;;;8.27
71630;BMP280;59479;51.902;8.212;2024-01-30T07:31:47;101975.13;;;8.28
71630;BMP280;59479;51.902;8.212;2024-01-30T07:34:12;101977.72;;;8.31
71630;BMP280;59479;51.902;8.212;2024-01-30T07:36:38;101980.25;;;8.31
71630;BMP280;59479;51.902;8.212;2024-01-30T07:39:03;101985.31;;;8.34
71630;BMP280;59479;51.902;8.212;2024-01-30T07:41:28;101982.75;;;8.32
71630;BMP280;59479;51.902;8.212;2024-01-30T07:43:54;101986.22;;;8.36
71630;BMP280;59479;51.902;8.212;2024-01-30T07:46:19;101979.41;;;8.32
71630;BMP280;59479;51.902;8.212;2024-01-30T07:48:44;101982.91;;;8.37
71630;BMP280;59479;51.902;8.212;2024-01-30T07:51:10;101987.06;;;8.36
71630;BMP280;59479;51.902;8.212;2024-01-30T07:53:35;101982.81;;;8.34
71630;BMP280;59479;51.902;8.212;2024-01-30T07:56:01;101978.75;;;8.37
71630;BMP280;59479;51.902;8.212;2024-01-30T07:58:26;101980.50;;;8.39
71630;BMP280;59479;51.902;8.212;2024-01-30T08:00:54;101985.66;;;8.44
71630;BMP280;59479;51.902;8.212;2024-01-30T08:03:21;101973.97;;;8.44
71630;BMP280;59479;51.902;8.212;2024-01-30T08:05:47;101974.03;;;8.46
71630;BMP280;59479;51.902;8.212;2024-01-30T08:08:12;101981.59;;;8.47
71630;BMP280;59479;51.902;8.212;2024-01-30T08:10:38;101982.38;;;8.46
71630;BMP280;59479;51.902;8.212;2024-01-30T08:13:03;101983.31;;;8.50
71630;BMP280;59479;51.902;8.212;2024-01-30T08:15:28;101980.81;;;8.50
71630;BMP280;59479;51.902;8.212;2024-01-30T08:17:54;101980.81;;;8.50
71630;BMP280;59479;51.902;8.212;2024-01-30T08:20:23;101992.63;;;8.54
71630;BMP280;59479;51.902;8.212;2024-01-30T08:22:49;102003.41;;;8.51
71630;BMP280;59479;51.902;8.212;2024-01-30T08:25:14;101997.66;;;8.54
71630;BMP280;59479;51.902;8.212;2024-01-30T08:27:40;101996.09;;;8.59
71630;BMP280;59479;51.902;8.212;2024-01-30T08:30:06;102002.78;;;8.58
71630;BMP280;59479;51.902;8.212;2024-01-30T08:32:32;101999.59;;;8.64
71630;BMP280;59479;51.902;8.212;2024-01-30T08:34:58;102002.25;;;8.68
71630;BMP280;59479;51.902;8.212;2024-01-30T08:37:23;101998.84;;;8.66
71630;BMP280;59479;51.902;8.212;2024-01-30T08:39:49;102001.34;;;8.66
71630;BMP280;59479;51.902;8.212;2024-01-30T08:42:14;101993.84;;;8.66
71630;BMP280;59479;51.902;8.212;2024-01-30T08:44:39;101989.84;;;8.73
71630;BMP280;59479;51.902;8.212;2024-01-30T08:47:05;101988.13;;;8.72
71630;BMP280;59479;51.902;8.212;2024-01-30T08:49:31;101994.91;;;8.74
71630;BMP280;59479;51.902;8.212;2024-01-30T08:51:56;102000.06;;;8.80
71630;BMP280;59479;51.902;8.212;2024-01-30T08:54:23;102004.31;;;8.81
71630;BMP280;59479;51.902;8.212;2024-01-30T08:56:48;102007.78;;;8.86
71630;BMP280;59479;51.902;8.212;2024-01-30T08:59:14;101996.13;;;8.88
71630;BMP280;59479;51.902;8.212;2024-01-30T09:01:39;102001.28;;;8.92
71630;BMP280;59479;51.902;8.212;2024-01-30T09:04:04;101999.72;;;8.96
71630;BMP280;59479;51.902;8.212;2024-01-30T09:06:30;101995.69;;;9.01
71630;BMP280;59479;51.902;8.212;2024-01-30T09:08:55;101999.88;;;9.02
71630;BMP280;59479;51.902;8.212;2024-01-30T09:11:23;102001.69;;;9.06
71630;BMP280;59479;51.902;8.212;2024-01-30T09:13:48;102006.75;;;9.09
71630;BMP280;59479;51.902;8.212;2024-01-30T09:16:13;101996.06;;;9.14
71630;BMP280;59479;51.902;8.212;2024-01-30T09:18:41;102005.25;;;9.15
71630;BMP280;59479;51.902;8.212;2024-01-30T09:21:06;101999.50;;;9.18
71630;BMP280;59479;51.902;8.212;2024-01-30T09:23:31;102007.09;;;9.21
71630;BMP280;59479;51.902;8.212;2024-01-30T09:25:57;102000.47;;;9.22
71630;BMP280;59479;51.902;8.212;2024-01-30T09:28:23;102001.41;;;9.26
71630;BMP280;59479;51.902;8.212;2024-01-30T09:30:48;102009.84;;;9.29
71630;BMP280;59479;51.902;8.212;2024-01-30T09:33:14;102009.91;;;9.31
71630;BMP280;59479;51.902;8.212;2024-01-30T09:35:39;102005.63;;;9.28
71630;BMP280;59479;51.902;8.212;2024-01-30T09:38:04;102011.63;;;9.33
71630;BMP280;59479;51.902;8.212;2024-01-30T09:40:30;101999.94;;;9.34
71630;BMP280;59479;51.902;8.212;2024-01-30T09:42:56;102004.25;;;9.39
71630;BMP280;59479;51.902;8.212;2024-01-30T09:45:25;102007.75;;;9.44
71630;BMP280;59479;51.902;8.212;2024-01-30T09:47:52;102003.66;;;9.48
71630;BMP280;59479;51.902;8.212;2024-01-30T09:50:18;102006.22;;;9.49
71630;BMP280;59479;51.902;8.212;2024-01-30T09:52:47;102001.19;;;9.49
71630;BMP280;59479;51.902;8.212;2024-01-30T09:55:13;102002.09;;;9.53
71630;BMP280;59479;51.902;8.212;2024-01-30T09:57:41;102009.78;;;9.57
71630;BMP280;59479;51.902;8.212;2024-01-30T10:00:07;102010.53;;;9.55
71630;BMP280;59479;51.902;8.212;2024-01-30T10:02:34;102004.75;;;9.57
71630;BMP280;59479;51.902;8.212;2024-01-30T10:05:00;101999.03;;;9.63
71630;BMP280;59479;51.902;8.212;2024-01-30T10:07:26;102005.19;;;9.75
71630;BMP280;59479;51.902;8.212;2024-01-30T10:09:52;102003.56;;;9.77
71630;BMP280;59479;51.902;8.212;2024-01-30T10:12:18;102006.72;;;9.70
71630;BMP280;59479;51.902;8.212;2024-01-30T10:14:44;102003.56;;;9.77
71630;BMP280;59479;51.902;8.212;2024-01-30T10:17:10;102007.03;;;9.82
71630;BMP280;59479;51.902;8.212;2024-01-30T10:19:36;102008.81;;;9.86
71630;BMP280;59479;51.902;8.212;2024-01-30T10:22:03;102009.66;;;9.86
71630;BMP280;59479;51.902;8.212;2024-01-30T10:24:28;102009.75;;;9.89
71630;BMP280;59479;51.902;8.212;2024-01-30T10:26:57;102010.78;;;9.96
71630;BMP280;59479;51.902;8.212;2024-01-30T10:29:22;102003.94;;;9.92
71630;BMP280;59479;51.902;8.212;2024-01-30T10:32:03;102003.28;;;9.97
71630;BMP280;59479;51.902;8.212;2024-01-30T10:34:29;102001.78;;;10.05
71630;BMP280;59479;51.902;8.212;2024-01-30T10:37:15;102009.28;;;10.04
71630;BMP280;59479;51.902;8.212;2024-01-30T10:39:43;101996.75;;;10.05
71630;BMP280;59479;51.902;8.212;2024-01-30T10:47:12;101991.50;;;10.31
71630;BMP280;59479;51.902;8.212;2024-01-30T10:49:41;101986.50;;;10.31
71630;BMP280;59479;51.902;8.212;2024-01-30T10:52:09;101978.84;;;10.27
71630;BMP280;59479;51.902;8.212;2024-01-30T10:54:35;101982.31;;;10.32
71630;BMP280;59479;51.902;8.212;2024-01-30T10:57:00;101985.00;;;10.39
71630;BMP280;59479;51.902;8.212;2024-01-30T10:59:29;101981.00;;;10.47
71630;BMP280;59479;51.902;8.212;2024-01-30T11:01:57;101982.72;;;10.49
71630;BMP280;59479;51.902;8.212;2024-01-30T11:04:23;101985.41;;;10.57
71630;BMP280;59479;51.902;8.212;2024-01-30T11:06:50;101985.41;;;10.58
71630;BMP280;59479;51.902;8.212;2024-01-30T11:09:17;101981.31;;;10.63
71630;BMP280;59479;51.902;8.212;2024-01-30T11:11:56;101983.19;;;10.70
71630;BMP280;59479;51.902;8.212;2024-01-30T11:14:31;101984.94;;;10.74
71630;BMP280;59479;51.902;8.212;2024-01-30T11:17:00;101985.06;;;10.82
71630;BMP280;59479;51.902;8.212;2024-01-30T11:19:26;101993.47;;;10.82
71630;BMP280;59479;51.902;8.212;2024-01-30T11:21:54;101988.56;;;10.88
71630;BMP280;59479;51.902;8.212;2024-01-30T11:24:21;101985.34;;;10.95
71630;BMP280;59479;51.902;8.212;2024-01-30T11:26:56;101984.56;;;10.97
71630;BMP280;59479;51.902;8.212;2024-01-30T11:29:25;101989.59;;;10.97
71630;BMP280;59479;51.902;8.212;2024-01-30T11:31:54;101985.44;;;10.99
71630;BMP280;59479;51.902;8.212;2024-01-30T11:34:20;101989.00;;;11.09
71630;BMP280;59479;51.902;8.212;2024-01-30T11:36:51;101990.84;;;11.17
71630;BMP280;59479;51.902;8.212;2024-01-30T11:39:20;101986.72;;;11.22
71630;BMP280;59479;51.902;8.212;2024-01-30T11:41:47;101983.22;;;11.14
71630;BMP280;59479;51.902;8.212;2024-01-30T11:44:15;101978.22;;;11.16
71630;BMP280;59479;51.902;8.212;2024-01-30T11:46:41;101978.31;;;11.22
71630;BMP280;59479;51.902;8.212;2024-01-30T11:49:06;101982.66;;;11.30
71630;BMP280;59479;51.902;8.212;2024-01-30T11:51:32;101983.66;;;11.38
71630;BMP280;59479;51.902;8.212;2024-01-30T11:53:58;101972.00;;;11.43
71630;BMP280;59479;51.902;8.212;2024-01-30T11:56:26;101985.31;;;11.36
71630;BMP280;59479;51.902;8.212;2024-01-30T11:58:52;101982.94;;;11.45
71630;BMP280;59479;51.902;8.212;2024-01-30T12:01:17;101972.22;;;11.52
71630;BMP280;59479;51.902;8.212;2024-01-30T12:03:48;101973.09;;;11.55
71630;BMP280;59479;51.902;8.212;2024-01-30T12:06:15;101983.22;;;11.60
71630;BMP280;59479;51.902;8.212;2024-01-30T12:08:41;101974.84;;;11.59
71630;BMP280;59479;51.902;8.212;2024-01-30T12:11:06;101971.41;;;11.54
71630;BMP280;59479;51.902;8.212;2024-01-30T12:13:32;101975.56;;;11.52
71630;BMP280;59479;51.902;8.212;2024-01-30T12:15:58;101979.97;;;11.64
71630;BMP280;59479;51.902;8.212;2024-01-30T12:18:24;101983.44;;;11.70
71630;BMP280;59479;51.902;8.212;2024-01-30T12:20:59;101980.09;;;11.73
71630;BMP280;59479;51.902;8.212;2024-01-30T12:23:28;101976.59;;;11.65
71630;BMP280;59479;51.902;8.212;2024-01-30T12:25:53;101985.09;;;11.70
71630;BMP280;59479;51.902;8.212;2024-01-30T12:28:20;101980.91;;;11.70
71630;BMP280;59479;51.902;8.212;2024-01-30T12:30:45;101991.03;;;11.73
71630;BMP280;59479;51.902;8.212;2024-01-30T12:33:16;101991.94;;;11.78
71630;BMP280;59479;51.902;8.212;2024-01-30T12:35:46;101994.63;;;11.88
71630;BMP280;59479;51.902;8.212;2024-01-30T12:38:11;101993.88;;;11.92
71630;BMP280;59479;51.902;8.212;2024-01-30T12:40:37;101990.50;;;11.93
71630;BMP280;59479;51.902;8.212;2024-01-30T12:43:02;101998.25;;;12.02
71630;BMP280;59479;51.902;8.212;2024-01-30T12:45:28;101992.41;;;12.06
71630;BMP280;59479;51.902;8.212;2024-01-30T12:47:53;101987.41;;;12.09
71630;BMP280;59479;51.902;8.212;2024-01-30T12:50:19;101986.50;;;12.04
71630;BMP280;59479;51.902;8.212;2024-01-30T12:52:44;101989.13;;;12.10
71630;BMP280;59479;51.902;8.212;2024-01-30T12:55:10;101993.28;;;12.08
71630;BMP280;59479;51.902;8.212;2024-01-30T12:57:35;101989.19;;;12.15
71630;BMP280;59479;51.902;8.212;2024-01-30T13:00:01;101984.97;;;12.14
71630;BMP280;59479;51.902;8.212;2024-01-30T13:02:27;101991.59;;;12.07
71630;BMP280;59479;51.902;8.212;2024-01-30T13:04:59;101989.13;;;12.10
71630;BMP280;59479;51.902;8.212;2024-01-30T13:07:25;101983.13;;;12.02
71630;BMP280;59479;51.902;8.212;2024-01-30T13:09:50;101994.78;;;11.97
71630;BMP280;59479;51.902;8.212;2024-01-30T13:12:16;101989.59;;;11.88
71630;BMP280;59479;51.902;8.212;2024-01-30T13:14:42;101990.41;;;11.86
71630;BMP280;59479;51.902;8.212;2024-01-30T13:17:07;101994.78;;;11.96
71630;BMP280;59479;51.902;8.212;2024-01-30T13:19:35;101993.25;;;12.07
71630;BMP280;59479;51.902;8.212;2024-01-30T13:22:01;101978.13;;;12.05
71630;BMP280;59479;51.902;8.212;2024-01-30T13:24:26;101990.78;;;12.10
71630;BMP280;59479;51.902;8.212;2024-01-30T13:26:52;102006.59;;;12.01
71630;BMP280;59479;51.902;8.212;2024-01-30T13:29:18;101989.84;;;12.03
71630;BMP280;59479;51.902;8.212;2024-01-30T13:31:44;101989.06;;;12.07
71630;BMP280;59479;51.902;8.212;2024-01-30T13:34:11;101998.38;;;12.11
71630;BMP280;59479;51.902;8.212;2024-01-30T13:36:38;101987.50;;;12.14
71630;BMP280;59479;51.902;8.212;2024-01-30T13:39:03;101988.97;;;12.01
71630;BMP280;59479;51.902;8.212;2024-01-30T13:41:29;101983.16;;;12.05
71630;BMP280;59479;51.902;8.212;2024-01-30T13:43:55;101978.19;;;12.10
71630;BMP280;59479;51.902;8.212;2024-01-30T13:46:20;101993.25;;;12.05
71630;BMP280;59479;51.902;8.212;2024-01-30T13:48:46;101990.75;;;12.08
71630;BMP280;59479;51.902;8.212;2024-01-30T13:51:11;101989.31;;;12.25
71630;BMP280;59479;51.902;8.212;2024-01-30T13:53:38;101981.00;;;12.29
71630;BMP280;59479;51.902;8.212;2024-01-30T13:56:03;101992.78;;;12.28
71630;BMP280;59479;51.902;8.212;2024-01-30T13:58:29;101995.31;;;12.31
71630;BMP280;59479;51.902;8.212;2024-01-30T14:00:55;102001.94;;;12.25
71630;BMP280;59479;51.902;8.212;2024-01-30T14:03:21;101993.56;;;12.26
71630;BMP280;59479;51.902;8.212;2024-01-30T14:05:49;102001.81;;;12.16